createdAt,value
2019-04-26T12:04:53.778Z,376.70
2019-04-26T12:05:51.076Z,371.00
2019-04-26T12:06:51.113Z,396.80
2019-04-26T12:07:51.078Z,421.60
2019-04-26T12:08:51.155Z,435.30
2019-04-26T12:09:51.037Z,301.70
2019-04-26T12:10:51.129Z,327.50
2019-04-26T12:12:04.048Z,350.50
2019-04-26T12:12:52.184Z,303.80
2019-04-26T12:13:50.996Z,272.80
2019-04-26T12:14:51.112Z,219.10
2019-04-26T12:15:50.972Z,226.90
2019-04-26T12:16:54.985Z,222.20
2019-04-26T12:17:58.407Z,215.30
2019-04-26T12:18:52.023Z,158.70
2019-04-26T12:19:52.326Z,110.30
2019-04-26T12:20:51.000Z,129.20
2019-04-26T12:21:50.916Z,78.00
2019-04-26T12:22:50.956Z,110.60
2019-04-26T12:23:51.297Z,99.60
2019-04-26T12:24:51.011Z,87.90
2019-04-26T12:25:50.861Z,81.70
2019-04-26T12:26:51.926Z,69.70
2019-04-26T12:27:53.423Z,55.60
2019-04-26T12:28:50.936Z,59.00
2019-04-26T12:29:50.810Z,55.80
2019-04-26T12:30:54.287Z,60.30
2019-04-26T12:31:51.803Z,38.70
2019-04-26T12:32:50.871Z,37.50
2019-04-26T12:33:50.773Z,32.80
2019-04-26T12:34:50.849Z,32.50
2019-04-26T12:35:56.786Z,34.00
2019-04-26T12:36:51.835Z,24.50
2019-04-26T12:37:54.614Z,26.60
2019-04-26T12:38:50.877Z,25.60
2019-04-26T12:39:50.697Z,24.50
2019-04-26T12:40:51.806Z,18.20
2019-04-26T12:41:50.671Z,23.00
2019-04-26T12:42:52.866Z,20.80
2019-04-26T12:43:54.473Z,21.00
2019-04-26T12:44:51.716Z,21.00
2019-04-26T12:45:51.459Z,19.20
2019-04-26T12:46:50.885Z,15.70
2019-04-26T12:47:50.683Z,11.70
2019-04-26T12:48:51.364Z,19.30
2019-04-26T12:49:50.582Z,20.40
2019-04-26T12:50:50.830Z,29.50
2019-04-26T12:51:52.106Z,25.10
2019-04-26T12:52:51.395Z,29.00
2019-04-26T12:53:50.542Z,28.30
2019-04-26T12:55:53.259Z,29.30
2019-04-26T12:56:50.599Z,24.00
2019-04-26T12:57:50.519Z,24.70
2019-04-26T12:59:51.472Z,22.30
2019-04-26T13:00:54.020Z,20.10
2019-04-26T13:01:50.477Z,18.70
2019-04-26T13:02:54.217Z,14.60
2019-04-26T13:03:51.428Z,18.70
2019-04-26T13:05:57.749Z,16.30
2019-04-26T13:06:51.492Z,15.20
2019-04-26T13:07:50.407Z,12.50
2019-04-26T13:08:51.505Z,14.20
2019-04-26T13:09:50.933Z,14.10
2019-04-26T13:10:50.476Z,12.60
2019-04-26T13:11:52.829Z,13.10
2019-04-26T13:12:51.554Z,10.00
2019-04-26T13:13:51.063Z,9.40
2019-04-26T13:14:50.855Z,12.10
2019-04-26T13:15:51.748Z,12.80
2019-04-26T13:16:50.530Z,12.00
2019-04-26T13:17:50.359Z,13.40
2019-04-26T13:18:51.440Z,10.60
2019-04-26T13:19:53.878Z,7.40
2019-04-26T13:20:51.334Z,10.00
2019-04-26T13:21:50.263Z,8.20
2019-04-26T13:22:54.284Z,10.00
2019-04-26T13:23:51.218Z,7.90
2019-04-26T13:24:50.962Z,7.50
2019-04-26T13:25:50.191Z,7.00
2019-04-26T13:26:50.439Z,7.70
2019-04-26T13:27:50.235Z,7.40
2019-04-26T13:28:52.441Z,7.80
2019-04-26T13:30:01.913Z,9.00
2019-04-26T13:30:51.137Z,6.80
2019-04-26T13:31:50.190Z,7.10
2019-04-26T13:32:53.436Z,7.80
2019-04-26T13:33:50.261Z,8.40
2019-04-26T13:34:50.092Z,5.80
2019-04-26T13:36:02.314Z,6.30
2019-04-26T13:36:51.081Z,5.50
2019-04-26T13:37:50.262Z,10.00
2019-04-26T13:38:50.070Z,5.90
2019-04-26T13:39:51.254Z,6.90
2019-04-26T13:40:50.030Z,5.80
2019-04-26T13:42:02.140Z,4.70
2019-04-26T13:42:51.480Z,6.10
2019-04-26T13:43:50.172Z,7.50
2019-04-26T13:44:50.022Z,4.70
2019-04-26T13:45:50.181Z,12.30
2019-04-26T13:46:49.976Z,6.30
2019-04-26T13:47:50.160Z,7.20
2019-04-26T13:48:49.984Z,5.70
2019-04-26T13:49:52.277Z,7.10
2019-04-26T13:50:49.922Z,4.70
2019-04-26T13:51:50.118Z,8.90
2019-04-26T13:52:49.910Z,5.90
2019-04-26T13:53:49.984Z,5.30
2019-04-26T13:54:51.246Z,5.90
2019-04-26T13:56:32.106Z,21.90
2019-04-26T13:56:50.898Z,10.10
2019-04-26T13:57:49.985Z,8.40
2019-04-26T13:58:49.873Z,7.50
2019-04-26T13:59:49.965Z,9.80
2019-04-26T14:00:49.816Z,6.70
2019-04-26T14:01:50.222Z,8.50
2019-04-26T14:02:50.033Z,7.50
2019-04-26T14:03:50.088Z,8.50
2019-04-26T14:04:49.776Z,9.00
2019-04-26T14:05:49.859Z,9.90
2019-04-26T14:06:49.776Z,10.20
2019-04-26T14:07:49.838Z,8.80
2019-04-26T14:08:49.726Z,8.10
2019-04-26T14:10:11.462Z,8.40
2019-04-26T14:10:51.775Z,7.60
2019-04-26T14:11:49.810Z,7.80
2019-04-26T14:12:50.157Z,9.00
2019-04-26T14:13:49.736Z,10.40
2019-04-26T14:14:49.678Z,12.10
2019-04-26T14:15:51.965Z,7.90
2019-04-26T14:16:52.095Z,12.70
2019-04-26T14:17:50.788Z,10.50
2019-04-26T14:18:49.626Z,8.30
2019-04-26T14:19:51.045Z,12.00
2019-04-26T14:20:49.607Z,8.00
2019-04-26T14:21:49.712Z,15.20
2019-04-26T14:22:49.582Z,20.40
2019-04-26T14:23:51.050Z,11.20
2019-04-26T14:24:53.094Z,17.30
2019-04-26T14:25:50.780Z,16.50
2019-04-26T14:26:49.536Z,34.10
2019-04-26T14:27:51.193Z,26.90
2019-04-26T14:28:49.514Z,30.30
2019-04-26T14:29:49.617Z,28.50
2019-04-26T14:30:49.496Z,24.00
2019-04-26T14:31:51.350Z,25.50
2019-04-26T14:32:52.883Z,31.20
2019-04-26T14:33:49.542Z,26.50
2019-04-26T14:34:49.473Z,25.90
2019-04-26T14:35:50.633Z,21.00
2019-04-26T14:36:49.425Z,25.70
2019-04-26T14:37:50.284Z,20.60
2019-04-26T14:38:49.410Z,23.90
2019-04-26T14:39:50.901Z,22.40
2019-04-26T14:40:56.916Z,22.80
2019-04-26T14:41:52.816Z,22.60
2019-04-26T14:43:05.699Z,20.40
2019-04-26T14:43:52.487Z,20.10
2019-04-26T14:44:50.470Z,14.80
2019-04-26T14:45:55.755Z,12.70
2019-04-26T14:46:53.274Z,15.40
2019-04-26T14:47:50.299Z,19.20
2019-04-26T14:49:01.084Z,20.00
2019-04-26T14:49:53.286Z,15.80
2019-04-26T14:50:53.155Z,14.50
2019-04-26T14:51:51.211Z,16.60
2019-04-26T14:52:49.374Z,18.90
2019-04-26T14:53:49.271Z,15.80
2019-04-26T14:54:49.443Z,16.60
2019-04-26T14:55:51.264Z,15.60
2019-04-26T14:56:52.385Z,17.20
2019-04-26T14:57:51.355Z,15.80
2019-04-26T14:58:49.306Z,18.30
2019-04-26T14:59:49.172Z,11.70
2019-04-26T15:00:51.484Z,12.10
2019-04-26T15:01:50.154Z,14.80
2019-04-26T15:02:49.211Z,16.50
2019-04-26T15:03:51.382Z,13.70
2019-04-26T15:04:50.344Z,14.20
2019-04-26T15:05:49.142Z,14.20
2019-04-26T15:06:51.934Z,9.20
2019-04-26T15:07:52.006Z,23.10
2019-04-26T15:09:50.242Z,20.80
2019-04-26T15:11:10.221Z,16.60
2019-04-26T15:11:56.919Z,23.40
2019-04-26T15:12:58.368Z,21.10
2019-04-26T15:13:50.029Z,16.00
2019-04-26T15:14:49.370Z,12.10
2019-04-26T15:15:49.020Z,20.40
2019-04-26T15:16:51.041Z,16.70
2019-04-26T15:17:48.987Z,14.60
2019-04-26T15:18:49.165Z,13.60
2019-04-26T15:19:48.956Z,17.40
2019-04-26T15:20:49.067Z,17.50
2019-04-26T15:21:48.940Z,17.00
2019-04-26T15:23:50.089Z,15.20
2019-04-26T15:24:48.964Z,16.60
2019-04-26T15:25:49.855Z,15.50
2019-04-26T15:26:58.164Z,17.10
2019-04-26T15:27:49.884Z,22.90
2019-04-26T15:28:50.377Z,17.50
2019-04-26T15:29:48.852Z,24.30
2019-04-26T15:30:49.096Z,17.60
2019-04-26T15:31:48.826Z,13.80
2019-04-26T15:32:48.943Z,12.50
2019-04-26T15:33:50.080Z,23.80
2019-04-26T15:35:50.103Z,14.10
2019-04-26T15:36:49.508Z,15.00
2019-04-26T15:38:50.039Z,15.90
2019-04-26T15:39:50.229Z,13.50
2019-04-26T15:41:51.331Z,9.90
2019-04-26T15:43:50.294Z,13.60
2019-04-26T15:44:49.026Z,13.50
2019-04-26T15:45:48.883Z,11.80
2019-04-26T15:46:49.844Z,12.70
2019-04-26T15:47:48.818Z,16.40
2019-04-26T15:48:50.411Z,11.60
2019-04-26T15:49:49.639Z,8.50
2019-04-26T15:50:52.037Z,11.80
2019-04-26T15:51:49.746Z,11.00
2019-04-26T15:52:48.609Z,9.90
2019-04-26T15:54:52.971Z,9.50
2019-04-26T15:55:49.576Z,9.00
2019-04-26T15:56:49.429Z,8.90
2019-04-26T15:57:48.584Z,10.00
2019-04-26T15:58:49.192Z,12.40
2019-04-26T15:59:48.530Z,10.40
2019-04-26T16:01:49.692Z,7.60
2019-04-26T16:02:49.630Z,8.00
2019-04-26T16:03:48.485Z,10.90
2019-04-26T16:04:51.397Z,8.60
2019-04-26T16:06:49.501Z,6.10
2019-04-26T16:07:48.540Z,6.80
2019-04-26T16:09:53.363Z,7.50
2019-04-26T16:10:49.611Z,8.80
2019-04-26T16:11:50.483Z,10.30
2019-04-26T16:12:48.509Z,10.70
2019-04-26T16:13:54.170Z,9.00
2019-04-26T16:14:49.501Z,8.50
2019-04-26T16:15:49.658Z,9.60
2019-04-26T16:16:48.446Z,7.80
2019-04-26T16:17:48.329Z,8.00
2019-04-26T16:18:50.022Z,6.60
2019-04-26T16:19:48.300Z,7.30
2019-04-26T16:20:48.434Z,7.80
2019-04-26T16:21:52.129Z,4.70
2019-04-26T16:22:49.395Z,6.90
2019-04-26T16:23:52.000Z,7.10
2019-04-26T16:24:53.436Z,3.80
2019-04-26T16:25:48.259Z,6.90
2019-04-26T16:26:50.614Z,6.90
2019-04-26T16:27:48.214Z,5.40
2019-04-26T16:28:48.365Z,6.40
2019-04-26T16:29:50.946Z,9.00
2019-04-26T16:30:49.284Z,9.80
2019-04-26T16:31:48.184Z,12.30
2019-04-26T16:32:52.657Z,9.70
2019-04-26T16:33:49.147Z,9.10
2019-04-26T16:34:49.318Z,10.30
2019-04-26T16:35:48.136Z,8.90
2019-04-26T16:36:48.228Z,8.20
2019-04-26T16:37:48.105Z,7.10
2019-04-26T16:38:48.657Z,7.50
2019-04-26T16:39:49.109Z,10.90
2019-04-26T16:40:51.972Z,14.10
2019-04-26T16:41:49.060Z,13.40
2019-04-26T16:42:49.836Z,11.30
2019-04-26T16:43:53.048Z,5.70
2019-04-26T16:44:53.100Z,10.90
2019-04-26T16:45:48.052Z,16.40
2019-04-26T16:46:53.919Z,13.00
2019-04-26T16:47:48.995Z,12.60
2019-04-26T16:49:49.158Z,11.40
2019-04-26T16:51:53.986Z,10.90
2019-04-26T16:52:48.958Z,12.20
2019-04-26T16:54:49.118Z,7.50
2019-04-26T16:55:52.293Z,12.80
2019-04-26T16:56:48.898Z,8.30
2019-04-26T16:57:54.911Z,8.70
2019-04-26T16:58:48.887Z,10.50
2019-04-26T16:59:54.338Z,9.70
2019-04-26T17:00:54.731Z,8.20
2019-04-26T17:01:48.837Z,6.40
2019-04-26T17:02:47.926Z,6.70
2019-04-26T17:03:48.279Z,6.90
2019-04-26T17:04:48.013Z,7.20
2019-04-26T17:05:48.737Z,7.50
2019-04-26T17:06:47.904Z,8.20
2019-04-26T17:07:47.773Z,8.30
2019-04-26T17:08:49.867Z,6.70
2019-04-26T17:09:58.973Z,8.10
2019-04-26T17:10:48.764Z,5.00
2019-04-26T17:11:47.871Z,7.80
2019-04-26T17:12:50.575Z,6.20
2019-04-26T17:13:53.530Z,6.40
2019-04-26T17:14:49.100Z,12.50
2019-04-26T17:15:52.093Z,9.80
2019-04-26T17:16:48.706Z,8.60
2019-04-26T17:17:50.446Z,6.30
2019-04-26T17:18:47.654Z,8.30
2019-04-26T17:19:49.855Z,6.80
2019-04-26T17:20:48.280Z,8.10
2019-04-26T17:21:47.818Z,9.70
2019-04-26T17:22:58.462Z,5.50
2019-04-26T17:23:48.601Z,7.50
2019-04-26T17:24:47.680Z,6.30
2019-04-26T17:25:47.582Z,5.80
2019-04-26T17:26:47.782Z,6.10
2019-04-26T17:27:47.562Z,8.80
2019-04-26T17:28:47.712Z,5.70
2019-04-26T17:29:47.534Z,4.30
2019-04-26T17:30:47.684Z,6.40
2019-04-26T17:31:47.526Z,10.50
2019-04-26T17:32:51.672Z,10.60
2019-04-26T17:33:48.490Z,10.00
2019-04-26T17:35:48.632Z,10.10
2019-04-26T17:36:52.263Z,10.40
2019-04-26T17:37:47.440Z,9.90
2019-04-26T17:38:47.563Z,8.30
2019-04-26T17:39:51.330Z,9.10
2019-04-26T17:40:50.408Z,7.50
2019-04-26T17:41:50.626Z,6.30
2019-04-26T17:42:48.512Z,8.50
2019-04-26T17:43:51.868Z,5.50
2019-04-26T17:45:48.598Z,9.20
2019-04-26T17:46:48.966Z,7.20
2019-04-26T17:47:48.686Z,11.10
2019-04-26T17:50:35.456Z,6.70
2019-04-26T17:51:41.768Z,7.00
2019-04-26T17:52:36.292Z,6.00
2019-04-26T17:53:34.284Z,10.20
2019-04-26T17:54:46.138Z,6.10
2019-04-26T17:55:35.373Z,5.20
2019-04-26T17:56:37.577Z,7.80
2019-04-26T17:57:37.054Z,5.50
2019-04-26T17:58:48.969Z,6.90
2019-04-26T17:59:36.854Z,7.70
2019-04-26T18:00:45.366Z,5.50
2019-04-26T18:01:46.862Z,6.70
2019-04-26T18:02:42.133Z,5.40
2019-04-26T18:03:35.295Z,6.40
2019-04-26T18:04:37.373Z,6.60
2019-04-26T18:05:55.986Z,8.60
2019-04-26T18:06:35.155Z,5.40
2019-04-26T18:07:40.521Z,4.30
2019-04-26T18:08:41.076Z,4.70
2019-04-26T18:09:43.900Z,6.70
2019-04-26T18:10:35.494Z,6.40
2019-04-26T18:11:35.254Z,6.40
2019-04-26T18:12:39.491Z,6.20
2019-04-26T18:14:35.246Z,8.50
2019-04-26T18:16:35.212Z,9.80
2019-04-26T18:17:38.902Z,10.90
2019-04-26T18:18:35.002Z,11.60
2019-04-26T18:19:34.068Z,9.60
2019-04-26T18:20:37.467Z,12.90
2019-04-26T18:22:36.361Z,7.80
2019-04-26T18:24:35.149Z,6.70
2019-04-26T18:25:34.075Z,8.20
2019-04-26T18:27:38.326Z,6.40
2019-04-26T18:28:34.089Z,7.80
2019-04-26T18:29:34.121Z,5.90
2019-04-26T18:30:34.258Z,8.80
2019-04-26T18:31:34.041Z,5.30
2019-04-26T18:32:41.816Z,5.80
2019-04-26T18:33:34.974Z,6.30
2019-04-26T18:34:37.180Z,4.50
2019-04-26T18:45:58.635Z,5.70
2019-04-26T18:46:58.018Z,4.00
2019-04-26T18:48:01.303Z,4.60
2019-04-26T18:48:58.007Z,4.90
